createdAt,value
2019-04-21T00:00:06.240Z,4.20
2019-04-21T00:05:25.943Z,4.05
2019-04-21T00:10:23.385Z,4.05
2019-04-21T00:15:14.547Z,3.97
2019-04-21T00:20:12.672Z,3.89
2019-04-21T00:30:21.404Z,3.85
2019-04-21T00:35:07.712Z,3.94
2019-04-21T00:40:22.222Z,3.82
2019-04-21T00:45:16.222Z,3.73
2019-04-21T00:50:25.697Z,3.72
2019-04-21T00:55:29.282Z,3.72
2019-04-21T01:05:18.654Z,3.54
2019-04-21T01:10:15.030Z,3.38
2019-04-21T01:15:32.746Z,3.38
2019-04-21T01:20:12.978Z,3.50
2019-04-21T01:25:08.940Z,3.42
2019-04-21T01:30:24.939Z,3.22
2019-04-21T01:35:21.509Z,3.16
2019-04-21T01:40:27.321Z,3.19
2019-04-21T01:45:21.590Z,3.08
2019-04-21T01:50:14.301Z,3.02
2019-04-21T01:55:25.107Z,2.91
2019-04-21T02:00:10.402Z,2.89
2019-04-21T02:05:25.865Z,2.84
2019-04-21T02:10:27.015Z,2.79
2019-04-21T02:15:25.058Z,2.78
2019-04-21T02:20:16.636Z,2.72
2019-04-21T02:30:36.088Z,2.49
2019-04-21T02:35:34.096Z,2.33
2019-04-21T03:20:35.793Z,0.00
2019-04-21T03:25:33.797Z,2.06
2019-04-21T03:30:59.543Z,2.15
2019-04-21T03:40:27.340Z,2.20
2019-04-21T03:50:33.078Z,2.04
2019-04-21T04:00:50.266Z,2.10
2019-04-21T04:05:49.346Z,2.30
2019-04-21T04:10:32.039Z,2.21
2019-04-21T04:15:39.474Z,2.25
2019-04-21T04:25:25.258Z,2.21
2019-04-21T04:30:33.949Z,2.15
2019-04-21T04:35:26.292Z,2.11
2019-04-21T04:40:30.916Z,2.13
2019-04-21T04:45:38.704Z,2.18
2019-04-21T04:55:33.775Z,2.26
2019-04-21T05:00:34.857Z,2.35
2019-04-21T05:05:36.284Z,2.45
2019-04-21T05:15:16.177Z,2.88
2019-04-21T05:20:26.160Z,4.48
2019-04-21T05:25:20.844Z,5.90
2019-04-21T05:30:30.680Z,6.98
2019-04-21T05:35:24.563Z,7.00
2019-04-21T05:40:17.404Z,7.63
2019-04-21T05:45:24.198Z,7.66
2019-04-21T05:50:19.404Z,8.03
2019-04-21T05:55:24.663Z,8.63
2019-04-21T06:05:28.395Z,9.46
2019-04-21T06:10:27.136Z,10.34
2019-04-21T06:15:19.807Z,10.40
2019-04-21T06:20:21.077Z,10.09
2019-04-21T06:30:28.952Z,11.38
2019-04-21T06:35:37.776Z,11.98
2019-04-21T06:40:23.124Z,12.89
2019-04-21T06:50:22.671Z,13.29
2019-04-21T06:55:31.189Z,13.87
2019-04-21T07:00:22.384Z,14.17
2019-04-21T07:05:31.095Z,13.98
2019-04-21T07:10:20.995Z,14.09
2019-04-21T07:15:28.294Z,14.75
2019-04-21T07:20:21.473Z,15.37
2019-04-21T07:25:22.550Z,15.91
2019-04-21T07:30:28.018Z,16.72
2019-04-21T07:35:20.737Z,17.54
2019-04-21T07:40:13.495Z,17.27
2019-04-21T07:45:18.014Z,17.84
2019-04-21T07:50:24.197Z,17.80
2019-04-21T08:00:31.130Z,18.49
2019-04-21T08:05:23.897Z,18.52
2019-04-21T08:10:23.022Z,19.26
2019-04-21T08:15:31.027Z,19.51
2019-04-21T08:20:18.731Z,19.18
2019-04-21T08:25:19.543Z,18.53
2019-04-21T08:30:26.154Z,19.28
2019-04-21T08:40:26.241Z,19.08
2019-04-21T08:45:25.486Z,19.20
2019-04-21T08:50:20.928Z,19.61
2019-04-21T08:55:25.316Z,18.81
2019-04-21T09:00:19.775Z,18.81
2019-04-21T09:05:17.726Z,19.02
2019-04-21T09:10:26.945Z,19.40
2019-04-21T09:15:20.253Z,19.73
2019-04-21T09:20:26.553Z,19.51
2019-04-21T09:25:26.513Z,20.01
2019-04-21T09:30:04.920Z,19.70
2019-04-21T09:35:05.683Z,19.83
2019-04-21T09:40:02.587Z,19.71
2019-04-21T09:45:04.138Z,20.11
2019-04-21T09:50:02.799Z,20.48
2019-04-21T09:55:06.973Z,20.63
2019-04-21T10:00:08.826Z,21.06
2019-04-21T10:05:01.912Z,20.51
2019-04-21T10:10:01.513Z,20.73
2019-04-21T10:15:01.922Z,20.77
2019-04-21T10:20:01.103Z,21.22
2019-04-21T10:25:02.847Z,20.89
2019-04-21T10:30:03.575Z,20.48
2019-04-21T10:35:01.541Z,20.48
2019-04-21T10:40:01.170Z,20.87
2019-04-21T10:45:03.316Z,20.93
2019-04-21T10:50:02.409Z,21.62
2019-04-21T10:55:19.136Z,22.32
2019-04-21T11:00:01.514Z,22.23
2019-04-21T11:05:02.701Z,20.96
2019-04-21T11:10:02.491Z,21.03
2019-04-21T11:30:02.342Z,22.25
2019-04-21T11:45:01.327Z,21.66
2019-04-21T16:35:05.353Z,22.08
2019-04-21T16:45:01.125Z,21.69
2019-04-21T16:55:03.460Z,21.05
2019-04-21T17:05:02.498Z,20.35
2019-04-21T17:35:01.928Z,16.01
2019-04-21T17:50:03.148Z,14.97
2019-04-21T18:25:07.036Z,13.01
2019-04-21T18:45:40.279Z,12.37
2019-04-21T19:05:09.109Z,11.13
2019-04-21T19:40:13.203Z,10.15
2019-04-21T19:55:02.497Z,9.59
2019-04-21T20:30:21.058Z,8.57
2019-04-21T20:55:15.536Z,8.22
2019-04-21T21:10:16.923Z,8.03
2019-04-21T21:25:29.026Z,8.36
2019-04-21T21:45:08.757Z,7.62
2019-04-21T22:05:07.257Z,7.20
2019-04-21T22:25:10.014Z,6.90
